CheckWX is a tool to help pilots better visualize weather data.  It is not intended as a substitute for an official pre-flight weather briefing.

05:05:04 UTC

FMNA METAR
Arrachart Airport
Madagascar
Current

1 hour ago

FMNA 180400Z 16006KT 9999 FEW020 25/23 Q1011
Observed
Feb-18 @ 04:00 UTC
Wind
  • 160° at 6 KTS
Visibility
10,000+ meters
Flight Rules
VFR
Cloud Levels
  • Few at 2,000' AGL
Temperature
25°C / 77°F
Dewpoint
23°C / 73°F
Humidity
89%
Altimeter
29.85" Hg
Pressure
1010.92 hPa
Previous

14 hours ago

FMNA 171500Z 14006KT 9999 FEW020 SCT230 28/22 Q1011
Observed
Feb-17 @ 15:00 UTC
Wind
  • 140° at 6 KTS
Visibility
10,000+ meters
Flight Rules
VFR
Cloud Levels
  • Few at 2,000' AGL
  • Scattered at 23,000' AGL
Temperature
28°C / 82°F
Dewpoint
22°C / 72°F
Humidity
70%
Altimeter
29.85" Hg
Pressure
1010.92 hPa
Previous

15 hours ago

FMNA 171400Z 12006KT 9999 FEW020 SCT230 29/22 Q1011
Observed
Feb-17 @ 14:00 UTC
Wind
  • 120° at 6 KTS
Visibility
10,000+ meters
Flight Rules
VFR
Cloud Levels
  • Few at 2,000' AGL
  • Scattered at 23,000' AGL
Temperature
29°C / 84°F
Dewpoint
22°C / 72°F
Humidity
66%
Altimeter
29.85" Hg
Pressure
1010.92 hPa